createdAt,value
2022-09-05T00:02:51.297Z,87.38
2022-09-05T00:06:02.265Z,87.20
2022-09-05T00:08:58.808Z,87.81
2022-09-05T00:11:57.134Z,87.75
2022-09-05T00:15:18.051Z,87.89
2022-09-05T00:22:42.396Z,87.27
2022-09-05T00:24:19.903Z,88.14
2022-09-05T00:25:21.180Z,87.57
2022-09-05T00:28:25.408Z,87.86
2022-09-05T00:31:53.353Z,88.02
2022-09-05T00:34:47.979Z,87.79
2022-09-05T00:37:33.749Z,88.24
2022-09-05T00:40:27.999Z,88.83
2022-09-05T00:43:17.029Z,88.57
2022-09-05T00:46:10.620Z,88.19
2022-09-05T00:49:02.235Z,88.22
2022-09-05T00:51:35.622Z,88.02
2022-09-05T00:54:44.557Z,87.93
2022-09-05T00:57:54.072Z,88.27
2022-09-05T01:00:25.664Z,88.72
2022-09-05T01:03:42.061Z,88.42
2022-09-05T01:06:24.338Z,89.13
2022-09-05T01:09:29.819Z,89.29
2022-09-05T01:12:18.302Z,89.07
2022-09-05T01:15:18.580Z,88.95
2022-09-05T01:18:16.877Z,89.11
2022-09-05T01:21:32.233Z,89.46
2022-09-05T01:24:11.676Z,89.40
2022-09-05T01:26:44.851Z,89.57
2022-09-05T01:29:23.474Z,89.80
2022-09-05T01:32:00.140Z,90.58
2022-09-05T01:34:34.511Z,90.61
2022-09-05T01:37:26.576Z,90.75
2022-09-05T01:40:16.495Z,90.47
2022-09-05T01:43:36.146Z,91.73
2022-09-05T01:46:26.216Z,91.08
2022-09-05T01:49:38.750Z,90.47
2022-09-05T01:52:19.140Z,90.75
2022-09-05T01:54:57.019Z,90.46
2022-09-05T01:57:51.535Z,90.92
2022-09-05T02:00:25.493Z,90.95
2022-09-05T02:03:29.532Z,91.15
2022-09-05T02:06:29.504Z,90.63
2022-09-05T02:09:06.654Z,90.77
2022-09-05T02:11:51.382Z,90.85
2022-09-05T02:14:44.564Z,91.46
2022-09-05T02:17:27.394Z,91.25
2022-09-05T02:20:25.545Z,91.82
2022-09-05T02:23:40.141Z,91.78
2022-09-05T02:26:06.504Z,91.65
2022-09-05T02:28:42.102Z,92.77
2022-09-05T02:31:19.502Z,92.31
2022-09-05T02:34:03.295Z,93.44
2022-09-05T02:36:43.978Z,92.28
2022-09-05T02:45:04.247Z,92.69
2022-09-05T02:45:10.558Z,92.19
2022-09-05T02:45:55.601Z,93.13
2022-09-05T02:48:48.825Z,92.71
2022-09-05T02:57:24.731Z,92.13
2022-09-05T02:57:42.485Z,91.91
2022-09-05T02:58:18.050Z,91.85
2022-09-05T03:00:52.870Z,92.96
2022-09-05T03:03:40.627Z,92.59
2022-09-05T03:06:34.933Z,92.32
2022-09-05T03:09:21.183Z,93.29
2022-09-05T03:12:00.369Z,92.91
2022-09-05T03:15:19.358Z,92.68
2022-09-05T03:18:23.414Z,93.53
2022-09-05T03:21:38.074Z,93.47
2022-09-05T03:24:29.279Z,92.80
2022-09-05T03:27:17.690Z,92.98
2022-09-05T03:30:19.379Z,93.55
2022-09-05T03:33:34.068Z,93.56
2022-09-05T03:36:19.761Z,93.65
2022-09-05T03:39:22.871Z,92.76
2022-09-05T03:42:03.326Z,94.16
2022-09-05T03:44:57.869Z,93.65
2022-09-05T03:48:23.086Z,93.59
2022-09-05T03:56:22.271Z,94.80
2022-09-05T03:57:15.204Z,93.82
2022-09-05T03:58:16.325Z,93.74
2022-09-05T04:02:27.692Z,94.79
2022-09-05T04:08:08.181Z,94.55
2022-09-05T04:08:29.250Z,93.87
2022-09-05T04:09:51.433Z,93.95
2022-09-05T04:12:30.685Z,93.72
2022-09-05T04:15:22.778Z,94.56
2022-09-05T04:18:11.035Z,94.73
2022-09-05T04:20:52.280Z,94.68
2022-09-05T04:23:29.091Z,95.06
2022-09-05T04:26:43.600Z,94.18
2022-09-05T04:29:26.262Z,93.22
2022-09-05T04:32:19.717Z,94.25
2022-09-05T04:35:13.825Z,93.82
2022-09-05T04:38:17.954Z,94.22
2022-09-05T04:41:13.936Z,94.57
2022-09-05T04:43:49.989Z,94.96
2022-09-05T04:46:28.906Z,94.67
2022-09-05T04:49:20.528Z,95.18
2022-09-05T04:52:11.240Z,95.10
2022-09-05T04:55:01.741Z,94.25
2022-09-05T04:57:52.688Z,94.72
2022-09-05T05:06:02.790Z,94.82
2022-09-05T05:06:18.347Z,94.80
2022-09-05T05:06:44.123Z,95.02
2022-09-05T05:09:23.129Z,96.00
2022-09-05T05:17:53.994Z,95.08
2022-09-05T05:18:08.469Z,93.91
2022-09-05T05:18:09.754Z,95.09
2022-09-05T05:21:29.018Z,95.51
2022-09-05T05:23:57.968Z,95.29
2022-09-05T05:26:34.806Z,95.30
2022-09-05T05:29:09.585Z,94.96
2022-09-05T05:31:56.300Z,94.33
2022-09-05T05:34:27.764Z,94.33
2022-09-05T05:37:11.516Z,94.57
2022-09-05T05:39:44.823Z,93.97
2022-09-05T05:42:20.864Z,93.77
2022-09-05T05:44:58.340Z,93.78
2022-09-05T05:47:32.742Z,93.49
2022-09-05T05:50:22.474Z,93.31
2022-09-05T05:53:07.066Z,93.34
2022-09-05T05:56:07.644Z,93.04
2022-09-05T05:59:11.436Z,92.79
2022-09-05T06:02:02.505Z,94.77
2022-09-05T06:05:04.157Z,94.99
2022-09-05T06:07:50.975Z,93.82
2022-09-05T06:14:57.618Z,93.62
2022-09-05T06:15:00.482Z,93.99
2022-09-05T06:18:16.191Z,93.54
2022-09-05T06:22:10.741Z,93.02
2022-09-05T06:28:18.179Z,91.96
2022-09-05T06:31:29.173Z,91.33
2022-09-05T06:34:35.637Z,90.79
2022-09-05T06:37:26.810Z,90.62
2022-09-05T06:40:44.858Z,90.42
2022-09-05T06:43:27.758Z,90.07
2022-09-05T06:47:05.702Z,89.44
2022-09-05T06:49:30.226Z,89.00
2022-09-05T06:52:42.550Z,88.85
2022-09-05T06:55:28.032Z,87.39
2022-09-05T06:58:24.274Z,88.03
2022-09-05T07:00:53.896Z,87.69
2022-09-05T07:03:59.396Z,87.31
2022-09-05T07:07:10.888Z,86.69
2022-09-05T07:10:22.017Z,86.35
2022-09-05T07:12:58.982Z,85.20
2022-09-05T07:16:00.514Z,84.25
2022-09-05T07:19:14.683Z,84.98
2022-09-05T07:22:44.490Z,84.70
2022-09-05T07:25:04.316Z,83.54
2022-09-05T07:27:41.920Z,83.31
2022-09-05T07:30:23.368Z,82.23
2022-09-05T07:32:53.561Z,81.45
2022-09-05T07:35:41.977Z,80.92
2022-09-05T07:38:38.104Z,80.17
2022-09-05T07:41:25.013Z,77.10
2022-09-05T07:43:56.540Z,76.84
2022-09-05T07:46:35.606Z,76.51
2022-09-05T07:49:06.445Z,74.10
2022-09-05T07:56:56.830Z,73.86
2022-09-05T07:57:09.218Z,74.51
2022-09-05T07:57:30.949Z,72.44
2022-09-05T08:00:26.938Z,72.16
2022-09-05T08:03:06.868Z,73.03
2022-09-05T08:05:50.669Z,72.50
2022-09-05T08:08:24.503Z,71.15
2022-09-05T08:11:23.938Z,70.12
2022-09-05T08:14:09.066Z,71.43
2022-09-05T08:16:49.150Z,70.93
2022-09-05T08:20:08.528Z,70.89
2022-09-05T08:22:52.139Z,71.14
2022-09-05T08:25:36.411Z,70.44
2022-09-05T08:28:37.499Z,70.72
2022-09-05T08:31:24.653Z,70.08
2022-09-05T08:33:53.565Z,70.23
2022-09-05T08:36:30.795Z,68.88
2022-09-05T08:39:00.385Z,68.30
2022-09-05T08:41:52.273Z,69.26
2022-09-05T08:46:42.371Z,68.21
2022-09-05T08:48:18.082Z,67.90
2022-09-05T08:51:24.979Z,67.54
2022-09-05T08:54:17.655Z,65.50
2022-09-05T08:56:54.966Z,65.62
2022-09-05T09:00:19.723Z,65.23
2022-09-05T09:03:18.123Z,66.99
2022-09-05T09:06:33.021Z,65.85
2022-09-05T09:15:00.745Z,62.47
2022-09-05T09:17:45.857Z,61.54
2022-09-05T09:23:41.973Z,60.15
2022-09-05T09:26:17.656Z,60.12
2022-09-05T09:29:04.269Z,60.13
2022-09-05T09:31:51.436Z,60.75
2022-09-05T09:34:47.246Z,59.48
2022-09-05T09:37:59.392Z,60.80
2022-09-05T09:40:35.560Z,59.45
2022-09-05T09:43:28.109Z,59.77
2022-09-05T09:46:18.853Z,58.89
2022-09-05T09:49:22.711Z,59.36
2022-09-05T09:52:09.092Z,59.04
2022-09-05T09:55:29.961Z,58.47
2022-09-05T09:58:14.990Z,57.96
2022-09-05T10:01:20.274Z,56.98
2022-09-05T10:10:38.769Z,55.52
2022-09-05T10:10:49.409Z,55.78
2022-09-05T10:11:52.867Z,54.84
2022-09-05T10:14:56.555Z,55.58
2022-09-05T10:21:19.299Z,54.72
2022-09-05T10:24:01.151Z,53.81
2022-09-05T10:27:06.050Z,53.94
2022-09-05T10:35:07.644Z,52.04
2022-09-05T10:35:59.162Z,50.32
2022-09-05T10:38:38.917Z,51.43
2022-09-05T10:41:21.853Z,50.37
2022-09-05T10:44:04.276Z,50.00
2022-09-05T10:47:06.943Z,50.88
2022-09-05T10:49:43.594Z,50.03
2022-09-05T10:52:40.278Z,48.33
2022-09-05T10:55:22.220Z,49.07
2022-09-05T10:58:12.474Z,47.70
2022-09-05T11:02:29.473Z,48.75
2022-09-05T11:03:56.273Z,47.58
2022-09-05T11:07:01.386Z,46.79
2022-09-05T11:09:36.930Z,47.92
2022-09-05T11:12:10.021Z,46.76
2022-09-05T11:14:52.613Z,46.73
2022-09-05T11:17:38.843Z,47.62
2022-09-05T11:20:58.938Z,44.32
2022-09-05T11:23:39.921Z,41.47
2022-09-05T11:26:22.935Z,42.86
2022-09-05T11:29:02.589Z,43.19
2022-09-05T11:32:04.232Z,43.37
2022-09-05T11:39:47.232Z,44.02
2022-09-05T11:39:53.892Z,44.23
2022-09-05T11:41:35.944Z,44.65
2022-09-05T11:44:30.118Z,44.86
2022-09-05T11:47:30.167Z,43.74
2022-09-05T11:50:37.572Z,43.37
2022-09-05T11:53:50.791Z,43.39
2022-09-05T11:56:52.631Z,43.13
2022-09-05T11:59:35.060Z,43.49
2022-09-05T12:02:26.461Z,43.63
2022-09-05T12:05:48.666Z,44.67
2022-09-05T12:08:40.135Z,44.41
2022-09-05T12:11:47.875Z,43.69
2022-09-05T12:18:19.360Z,42.52
2022-09-05T12:25:24.145Z,43.46
2022-09-05T12:27:38.042Z,43.05
2022-09-05T12:30:06.899Z,42.57
2022-09-05T12:35:18.298Z,42.21
2022-09-05T12:36:10.059Z,42.34
2022-09-05T12:40:56.915Z,41.47
2022-09-05T12:41:43.408Z,40.54
2022-09-05T12:42:09.784Z,43.35
2022-09-05T12:42:09.813Z,44.21
2022-09-05T12:44:57.132Z,40.62
2022-09-05T12:47:30.235Z,41.57
2022-09-05T12:50:15.268Z,40.82
2022-09-05T12:52:47.015Z,41.18
2022-09-05T12:55:26.470Z,41.05
2022-09-05T13:03:02.855Z,42.13
2022-09-05T13:03:08.457Z,40.45
2022-09-05T13:03:53.526Z,40.80
2022-09-05T13:06:58.983Z,41.71
2022-09-05T13:09:32.307Z,42.17
2022-09-05T13:14:53.611Z,41.19
2022-09-05T13:15:24.753Z,40.68
2022-09-05T13:18:21.733Z,39.91
2022-09-05T13:20:59.382Z,40.72
2022-09-05T13:24:05.799Z,39.86
2022-09-05T13:26:40.188Z,39.08
2022-09-05T13:29:22.124Z,38.18
2022-09-05T13:37:58.750Z,38.09
2022-09-05T13:38:12.465Z,38.72
2022-09-05T13:38:14.610Z,38.47
2022-09-05T13:40:40.621Z,38.65
2022-09-05T13:43:28.175Z,39.74
2022-09-05T13:46:18.948Z,38.95
2022-09-05T13:51:44.688Z,39.20
2022-09-05T13:54:36.839Z,38.51
2022-09-05T13:57:32.522Z,38.68
2022-09-05T14:00:29.270Z,38.24
2022-09-05T14:03:38.409Z,37.18
2022-09-05T14:06:45.632Z,38.92
2022-09-05T14:09:53.999Z,37.69
2022-09-05T14:13:07.706Z,37.30
2022-09-05T14:16:07.927Z,38.08
2022-09-05T14:19:04.682Z,37.09
2022-09-05T14:21:36.835Z,37.70
2022-09-05T14:24:12.480Z,39.01
2022-09-05T14:27:03.226Z,38.38
2022-09-05T14:29:48.887Z,38.71
2022-09-05T14:37:44.745Z,37.87
2022-09-05T14:38:38.866Z,37.46
2022-09-05T14:41:24.345Z,37.27
2022-09-05T14:44:28.312Z,36.82
2022-09-05T14:47:32.292Z,36.67
2022-09-05T14:50:17.668Z,37.20
2022-09-05T14:57:23.477Z,38.45
2022-09-05T15:02:49.360Z,38.12
2022-09-05T15:02:49.861Z,39.09
2022-09-05T15:05:16.627Z,39.16
2022-09-05T15:07:48.571Z,38.89
2022-09-05T15:12:14.289Z,38.95
2022-09-05T15:13:29.149Z,39.04
2022-09-05T15:16:02.799Z,38.40
2022-09-05T15:18:39.469Z,39.29
2022-09-05T15:21:34.048Z,39.24
2022-09-05T15:24:19.517Z,40.11
2022-09-05T15:26:59.202Z,40.55
2022-09-05T15:29:34.643Z,40.54
2022-09-05T15:32:21.691Z,40.82
2022-09-05T15:34:49.931Z,41.13
2022-09-05T15:37:33.373Z,41.52
2022-09-05T15:40:07.729Z,40.99
2022-09-05T15:43:01.059Z,42.04
2022-09-05T15:45:31.959Z,42.20
2022-09-05T15:48:18.237Z,42.12
2022-09-05T15:50:51.594Z,42.03
2022-09-05T15:53:34.285Z,42.58
2022-09-05T15:56:17.003Z,41.95
2022-09-05T15:58:53.595Z,42.64
2022-09-05T16:01:58.605Z,42.05
2022-09-05T16:08:52.142Z,42.47
2022-09-05T16:10:34.320Z,42.87
2022-09-05T16:10:49.756Z,43.07
2022-09-05T16:12:54.979Z,43.36
2022-09-05T16:19:58.176Z,44.12
2022-09-05T16:23:14.179Z,44.09
2022-09-05T16:23:26.780Z,43.87
2022-09-05T16:24:05.194Z,44.70
2022-09-05T16:26:40.292Z,45.02
2022-09-05T16:29:26.416Z,44.95
2022-09-05T16:32:22.059Z,45.35
2022-09-05T16:35:02.890Z,44.86
2022-09-05T16:37:45.067Z,44.74
2022-09-05T16:40:22.110Z,45.43
2022-09-05T16:43:00.483Z,45.26
2022-09-05T16:46:14.543Z,45.62
2022-09-05T16:49:13.685Z,45.05
2022-09-05T16:51:45.710Z,45.95
2022-09-05T16:54:41.948Z,45.69
2022-09-05T16:57:26.879Z,45.97
2022-09-05T16:59:53.769Z,45.99
2022-09-05T17:02:45.571Z,46.01
2022-09-05T17:05:30.102Z,45.68
2022-09-05T17:08:20.295Z,46.56
2022-09-05T17:10:57.644Z,45.98
2022-09-05T17:13:54.027Z,46.71
2022-09-05T17:16:35.328Z,46.55
2022-09-05T17:19:03.373Z,46.66
2022-09-05T17:24:16.851Z,46.56
2022-09-05T17:28:52.724Z,47.34
2022-09-05T17:29:32.753Z,47.53
2022-09-05T17:32:54.101Z,47.14
2022-09-05T17:36:16.826Z,47.28
2022-09-05T17:39:01.553Z,48.14
2022-09-05T17:41:58.804Z,47.54
2022-09-05T17:45:15.110Z,48.30
2022-09-05T17:47:49.898Z,48.52
2022-09-05T17:50:20.177Z,48.58
2022-09-05T17:53:25.355Z,49.04
2022-09-05T17:56:14.839Z,49.12
2022-09-05T17:59:01.856Z,49.34
2022-09-05T18:01:31.190Z,49.26
2022-09-05T18:04:15.729Z,49.50
2022-09-05T18:06:59.153Z,49.78
2022-09-05T18:10:13.023Z,50.37
2022-09-05T18:13:12.786Z,51.17
2022-09-05T18:16:15.545Z,51.02
2022-09-05T18:19:28.101Z,50.89
2022-09-05T18:21:48.340Z,50.94
2022-09-05T18:24:32.641Z,50.94
2022-09-05T18:27:15.074Z,51.66
2022-09-05T18:30:22.070Z,51.25
2022-09-05T18:33:53.687Z,51.42
2022-09-05T18:36:39.766Z,52.24
2022-09-05T18:39:46.819Z,52.51
2022-09-05T18:42:26.015Z,53.52
2022-09-05T18:45:15.306Z,53.53
2022-09-05T18:47:51.316Z,53.28
2022-09-05T18:50:28.827Z,53.48
2022-09-05T18:53:09.447Z,52.84
2022-09-05T18:56:12.254Z,53.57
2022-09-05T18:59:09.370Z,53.45
2022-09-05T19:01:42.056Z,54.01
2022-09-05T19:04:41.501Z,55.04
2022-09-05T19:07:08.998Z,54.99
2022-09-05T19:09:38.304Z,55.70
2022-09-05T19:12:33.627Z,55.72
2022-09-05T19:15:06.874Z,55.81
2022-09-05T19:17:39.090Z,55.81
2022-09-05T19:20:33.383Z,56.49
2022-09-05T19:23:10.625Z,56.61
2022-09-05T19:25:45.269Z,57.23
2022-09-05T19:34:15.620Z,57.77
2022-09-05T19:36:59.602Z,58.15
2022-09-05T19:37:08.547Z,57.94
2022-09-05T19:37:31.079Z,58.59
2022-09-05T19:45:05.624Z,59.53
2022-09-05T19:47:26.678Z,59.55
2022-09-05T19:47:42.435Z,59.79
2022-09-05T19:48:41.839Z,61.05
2022-09-05T19:51:16.975Z,61.17
2022-09-05T19:53:54.061Z,61.85
2022-09-05T19:56:43.700Z,62.00
2022-09-05T19:59:23.145Z,62.90
2022-09-05T20:01:52.282Z,63.11
2022-09-05T20:04:19.836Z,64.32
2022-09-05T20:06:48.573Z,64.59
2022-09-05T20:09:21.367Z,65.37
2022-09-05T20:11:50.541Z,67.61
2022-09-05T20:14:25.804Z,69.12
2022-09-05T20:16:56.285Z,69.10
2022-09-05T20:19:28.692Z,69.48
2022-09-05T20:21:58.602Z,70.75
2022-09-05T20:24:25.855Z,71.96
2022-09-05T20:26:52.854Z,72.19
2022-09-05T20:30:06.347Z,72.02
2022-09-05T20:32:42.550Z,72.11
2022-09-05T20:37:04.590Z,73.79
2022-09-05T20:43:19.663Z,73.78
2022-09-05T20:43:31.552Z,74.31
2022-09-05T20:44:22.681Z,74.68
2022-09-05T20:50:51.280Z,75.64
2022-09-05T20:54:09.168Z,76.31
2022-09-05T20:54:22.766Z,77.01
2022-09-05T20:55:42.050Z,77.25
2022-09-05T20:58:14.890Z,76.76
2022-09-05T21:01:19.805Z,76.88
2022-09-05T21:03:38.246Z,77.31
2022-09-05T21:06:22.283Z,77.80
2022-09-05T21:08:50.717Z,77.92
2022-09-05T21:11:17.866Z,78.10
2022-09-05T21:13:52.281Z,78.14
2022-09-05T21:16:28.975Z,77.35
2022-09-05T21:18:56.160Z,77.01
2022-09-05T21:21:32.101Z,78.05
2022-09-05T21:24:16.949Z,78.29
2022-09-05T21:26:48.863Z,79.25
2022-09-05T21:29:24.970Z,79.33
2022-09-05T21:32:00.110Z,79.07
2022-09-05T21:34:35.599Z,80.17
2022-09-05T21:37:07.591Z,80.41
2022-09-05T21:39:46.747Z,79.70
2022-09-05T21:43:20.273Z,79.53
2022-09-05T21:47:43.208Z,79.41
2022-09-05T21:48:02.837Z,80.11
2022-09-05T21:50:33.622Z,81.12
2022-09-05T21:54:21.064Z,80.93
2022-09-05T21:59:29.388Z,80.93
2022-09-05T21:59:32.701Z,80.70
2022-09-05T22:01:51.268Z,80.67
2022-09-05T22:04:15.703Z,80.65
2022-09-05T22:06:44.955Z,80.92
2022-09-05T22:09:13.603Z,82.17
2022-09-05T22:11:41.501Z,81.95
2022-09-05T22:14:09.499Z,81.97
2022-09-05T22:16:44.976Z,82.51
2022-09-05T22:19:23.131Z,82.26
2022-09-05T22:21:59.859Z,82.33
2022-09-05T22:24:29.493Z,82.24
2022-09-05T22:27:12.715Z,82.84
2022-09-05T22:29:40.156Z,83.26
2022-09-05T22:32:07.521Z,82.16
2022-09-05T22:34:34.371Z,82.24
2022-09-05T22:37:01.146Z,82.72
2022-09-05T22:39:36.897Z,83.31
2022-09-05T22:42:10.230Z,82.91
2022-09-05T22:44:38.570Z,83.20
2022-09-05T22:47:06.284Z,82.87
2022-09-05T22:49:32.899Z,83.80
2022-09-05T22:51:59.853Z,83.70
2022-09-05T22:54:27.096Z,83.37
2022-09-05T22:56:53.789Z,84.49
2022-09-05T22:59:20.506Z,84.96
2022-09-05T23:01:47.456Z,84.11
2022-09-05T23:04:14.456Z,84.07
2022-09-05T23:06:41.330Z,84.48
2022-09-05T23:09:09.991Z,84.06
2022-09-05T23:11:36.694Z,84.42
2022-09-05T23:14:03.618Z,84.73
2022-09-05T23:16:30.847Z,84.96
2022-09-05T23:18:57.631Z,85.55
2022-09-05T23:21:24.255Z,85.11
2022-09-05T23:23:51.025Z,85.39
2022-09-05T23:26:17.907Z,85.44
2022-09-05T23:28:47.196Z,84.96
2022-09-05T23:31:14.040Z,85.22
2022-09-05T23:33:42.028Z,85.96
2022-09-05T23:36:13.671Z,85.42
2022-09-05T23:38:42.511Z,85.93
2022-09-05T23:41:14.307Z,85.80
2022-09-05T23:43:42.436Z,85.62
2022-09-05T23:46:09.790Z,85.55
2022-09-05T23:48:37.182Z,85.97
2022-09-05T23:51:12.453Z,86.14
2022-09-05T23:53:39.783Z,86.02
2022-09-05T23:56:08.178Z,86.38
2022-09-05T23:58:35.714Z,86.39
